createdAt,value
2018-04-15T00:01:50.677Z,39.85
2018-04-15T00:04:17.500Z,38.40
2018-04-15T00:06:44.674Z,40.58
2018-04-15T00:09:11.457Z,39.17
2018-04-15T00:11:38.557Z,39.92
2018-04-15T00:14:05.417Z,40.30
2018-04-15T00:16:32.208Z,40.47
2018-04-15T00:18:59.012Z,40.12
2018-04-15T00:21:25.811Z,39.60
2018-04-15T00:23:52.876Z,40.20
2018-04-15T00:26:20.032Z,41.50
2018-04-15T00:28:46.857Z,40.63
2018-04-15T00:31:13.697Z,43.00
2018-04-15T00:33:40.484Z,42.47
2018-04-15T00:36:07.345Z,42.90
2018-04-15T00:38:34.377Z,41.90
2018-04-15T00:41:01.500Z,44.17
2018-04-15T00:43:28.316Z,42.92
2018-04-15T00:45:55.162Z,44.70
2018-04-15T00:48:22.057Z,48.22
2018-04-15T00:50:49.081Z,44.90
2018-04-15T00:53:15.884Z,45.50
2018-04-15T00:55:42.738Z,46.97
2018-04-15T00:58:09.583Z,46.80
2018-04-15T01:00:36.436Z,48.25
2018-04-15T01:03:03.233Z,46.37
2018-04-15T01:05:30.074Z,44.00
2018-04-15T01:07:56.950Z,47.42
2018-04-15T01:10:23.744Z,48.45
2018-04-15T01:12:50.601Z,46.70
2018-04-15T01:15:17.713Z,48.77
2018-04-15T01:17:44.871Z,49.55
2018-04-15T01:20:11.713Z,48.00
2018-04-15T01:22:38.526Z,49.65
2018-04-15T01:25:05.381Z,50.03
2018-04-15T01:27:32.199Z,49.72
2018-04-15T01:29:59.017Z,48.60
2018-04-15T01:32:25.834Z,47.62
2018-04-15T01:34:52.637Z,50.25
2018-04-15T01:37:19.482Z,49.30
2018-04-15T01:39:46.268Z,49.22
2018-04-15T01:42:13.402Z,49.97
2018-04-15T01:44:40.241Z,50.30
2018-04-15T01:47:07.069Z,48.38
2018-04-15T01:49:34.148Z,50.80
2018-04-15T01:52:00.967Z,47.83
2018-04-15T01:54:28.032Z,49.17
2018-04-15T01:56:54.841Z,50.50
2018-04-15T01:59:21.673Z,48.70
2018-04-15T02:01:48.533Z,48.50
2018-04-15T02:04:15.328Z,48.22
2018-04-15T02:06:42.158Z,46.03
2018-04-15T02:09:09.001Z,45.93
2018-04-15T02:11:35.825Z,43.10
2018-04-15T02:14:02.641Z,42.45
2018-04-15T02:16:29.459Z,36.38
2018-04-15T02:18:56.250Z,35.72
2018-04-15T02:21:23.094Z,36.80
2018-04-15T02:23:50.178Z,42.67
2018-04-15T02:26:17.026Z,44.40
2018-04-15T02:28:44.141Z,40.57
2018-04-15T02:31:10.966Z,34.83
2018-04-15T02:33:37.777Z,35.93
2018-04-15T02:36:04.602Z,37.58
2018-04-15T02:38:31.452Z,37.75
2018-04-15T02:40:58.285Z,36.72
2018-04-15T02:43:25.088Z,39.15
2018-04-15T02:45:51.892Z,42.60
2018-04-15T02:48:18.725Z,37.08
2018-04-15T02:50:45.570Z,36.83
2018-04-15T02:53:12.672Z,38.63
2018-04-15T02:55:39.498Z,41.13
2018-04-15T02:58:06.300Z,41.17
2018-04-15T03:00:33.100Z,37.40
2018-04-15T03:02:59.917Z,32.55
2018-04-15T03:05:26.785Z,34.97
2018-04-15T03:07:53.838Z,35.03
2018-04-15T03:10:20.682Z,33.10
2018-04-15T03:12:47.502Z,33.47
2018-04-15T03:15:14.308Z,32.30
2018-04-15T03:17:41.142Z,29.67
2018-04-15T03:20:08.257Z,29.63
2018-04-15T03:22:35.085Z,28.40
2018-04-15T03:25:02.145Z,29.23
2018-04-15T03:27:28.972Z,29.33
2018-04-15T03:29:55.754Z,28.12
2018-04-15T03:32:22.586Z,28.10
2018-04-15T03:34:49.395Z,28.02
2018-04-15T03:37:16.570Z,25.08
2018-04-15T03:39:43.380Z,25.10
2018-04-15T03:42:10.179Z,24.87
2018-04-15T03:44:37.018Z,23.80
2018-04-15T03:47:04.036Z,27.42
2018-04-15T03:49:30.862Z,24.30
2018-04-15T03:51:57.672Z,33.25
2018-04-15T03:54:24.468Z,29.80
2018-04-15T03:56:51.294Z,30.35
2018-04-15T03:59:18.356Z,28.85
2018-04-15T04:01:45.162Z,27.73
2018-04-15T04:04:12.848Z,26.10
2018-04-15T04:06:39.679Z,26.45
2018-04-15T04:09:06.752Z,26.95
2018-04-15T04:11:33.560Z,29.17
2018-04-15T04:14:00.394Z,27.80
2018-04-15T04:16:27.200Z,29.13
2018-04-15T04:19:00.068Z,28.38
2018-04-15T04:21:33.256Z,28.40
2018-04-15T04:24:05.904Z,30.80
2018-04-15T04:26:32.984Z,31.92
2018-04-15T04:29:00.136Z,30.27
2018-04-15T04:31:27.192Z,31.97
2018-04-15T04:33:54.341Z,34.30
2018-04-15T04:36:21.137Z,32.30
2018-04-15T04:38:47.956Z,34.25
2018-04-15T04:41:14.751Z,42.83
2018-04-15T04:43:41.556Z,34.38
2018-04-15T04:46:08.368Z,33.78
2018-04-15T04:48:35.173Z,31.83
2018-04-15T04:51:02.001Z,31.95
2018-04-15T04:53:29.084Z,33.20
2018-04-15T04:55:55.867Z,33.95
2018-04-15T04:58:22.672Z,33.25
2018-04-15T05:00:49.711Z,31.50
2018-04-15T05:03:16.562Z,32.00
2018-04-15T05:05:43.351Z,32.90
2018-04-15T05:08:10.198Z,32.15
2018-04-15T05:10:36.992Z,33.92
2018-04-15T05:13:03.793Z,35.53
2018-04-15T05:15:30.880Z,35.33
2018-04-15T05:17:57.715Z,37.95
2018-04-15T05:20:24.564Z,38.08
2018-04-15T05:22:51.608Z,39.13
2018-04-15T05:25:18.760Z,35.75
2018-04-15T05:27:45.560Z,37.42
2018-04-15T05:30:12.353Z,38.03
2018-04-15T05:32:39.186Z,35.88
2018-04-15T05:35:06.239Z,36.20
2018-04-15T05:37:33.075Z,36.63
2018-04-15T05:39:59.843Z,35.38
2018-04-15T05:42:26.974Z,37.40
2018-04-15T05:44:53.801Z,38.70
2018-04-15T05:47:20.623Z,37.08
2018-04-15T05:49:47.436Z,32.50
2018-04-15T05:52:14.228Z,32.80
2018-04-15T05:54:41.065Z,30.08
2018-04-15T05:57:07.848Z,27.93
2018-04-15T05:59:34.982Z,25.23
2018-04-15T06:02:01.843Z,26.37
2018-04-15T06:04:28.656Z,23.75
2018-04-15T06:06:55.493Z,22.33
2018-04-15T06:09:22.657Z,23.92
2018-04-15T06:11:49.493Z,24.50
2018-04-15T06:14:16.544Z,24.52
2018-04-15T06:16:43.364Z,25.90
2018-04-15T06:19:10.199Z,29.67
2018-04-15T06:21:36.982Z,30.88
2018-04-15T06:24:03.822Z,31.02
2018-04-15T06:26:30.658Z,32.90
2018-04-15T06:28:57.736Z,32.13
2018-04-15T06:31:24.531Z,32.10
2018-04-15T06:33:51.338Z,32.65
2018-04-15T06:36:18.441Z,34.92
2018-04-15T06:38:45.252Z,32.90
2018-04-15T06:41:12.091Z,35.10
2018-04-15T06:43:39.178Z,35.30
2018-04-15T06:46:05.990Z,36.15
2018-04-15T06:48:32.825Z,39.50
2018-04-15T06:50:59.608Z,42.55
2018-04-15T06:53:26.656Z,40.20
2018-04-15T06:55:53.696Z,39.55
2018-04-15T06:58:20.517Z,39.28
2018-04-15T07:00:47.593Z,38.65
2018-04-15T07:03:14.446Z,38.03
2018-04-15T07:05:41.236Z,38.00
2018-04-15T07:08:08.325Z,38.77
2018-04-15T07:10:35.140Z,38.97
2018-04-15T07:13:02.223Z,38.70
2018-04-15T07:15:29.267Z,39.05
2018-04-15T07:17:56.287Z,40.60
2018-04-15T07:20:23.148Z,41.17
2018-04-15T07:22:49.928Z,39.42
2018-04-15T07:25:16.759Z,38.20
2018-04-15T07:27:43.602Z,38.08
2018-04-15T07:30:10.405Z,39.60
2018-04-15T07:32:37.258Z,37.78
2018-04-15T07:35:04.077Z,34.70
2018-04-15T07:37:30.900Z,35.00
2018-04-15T07:39:57.697Z,35.08
2018-04-15T07:42:24.717Z,35.70
2018-04-15T07:44:51.563Z,33.13
2018-04-15T07:47:18.378Z,34.38
2018-04-15T07:49:45.184Z,33.35
2018-04-15T07:52:12.021Z,33.42
2018-04-15T07:54:38.854Z,33.22
2018-04-15T07:57:05.641Z,32.95
2018-04-15T07:59:32.489Z,31.98
2018-04-15T08:01:59.591Z,30.58
2018-04-15T08:04:26.392Z,28.33
2018-04-15T08:06:53.214Z,25.83
2018-04-15T08:09:20.001Z,25.95
2018-04-15T08:11:47.083Z,26.40
2018-04-15T08:14:13.900Z,26.85
2018-04-15T08:16:40.741Z,26.52
2018-04-15T08:19:07.801Z,27.00
2018-04-15T08:21:34.689Z,26.70
2018-04-15T08:24:01.553Z,27.33
2018-04-15T08:26:28.367Z,27.55
2018-04-15T08:28:55.172Z,27.77
2018-04-15T08:31:21.955Z,28.00
2018-04-15T08:33:48.813Z,29.48
2018-04-15T08:36:15.633Z,30.00
2018-04-15T08:38:42.757Z,30.12
2018-04-15T08:41:09.586Z,30.30
2018-04-15T08:43:36.364Z,30.20
2018-04-15T08:46:03.172Z,29.52
2018-04-15T08:48:30.332Z,30.33
2018-04-15T08:50:57.148Z,31.42
2018-04-15T08:53:23.973Z,29.58
2018-04-15T08:55:50.804Z,29.45
2018-04-15T08:58:17.627Z,28.45
2018-04-15T09:00:44.447Z,29.23
2018-04-15T09:03:11.598Z,31.48
2018-04-15T09:05:38.754Z,31.50
2018-04-15T09:08:05.836Z,33.70
2018-04-15T09:10:32.599Z,35.72
2018-04-15T09:12:59.462Z,34.63
2018-04-15T09:15:26.285Z,35.53
2018-04-15T09:17:53.101Z,34.13
2018-04-15T09:20:20.218Z,34.20
2018-04-15T09:22:47.008Z,34.60
2018-04-15T09:25:14.081Z,35.88
2018-04-15T09:27:41.138Z,34.35
2018-04-15T09:30:08.030Z,34.75
2018-04-15T09:32:35.659Z,35.03
2018-04-15T09:35:02.474Z,34.17
2018-04-15T09:37:29.556Z,34.97
2018-04-15T09:39:56.378Z,35.15
2018-04-15T09:42:23.223Z,34.10
2018-04-15T09:44:50.283Z,34.67
2018-04-15T09:47:17.131Z,35.95
2018-04-15T09:49:43.915Z,35.42
2018-04-15T09:52:10.746Z,34.17
2018-04-15T09:54:37.581Z,33.50
2018-04-15T09:57:04.707Z,34.83
2018-04-15T09:59:31.557Z,33.40
2018-04-15T10:01:58.697Z,33.13
2018-04-15T10:04:25.853Z,33.72
2018-04-15T10:06:52.689Z,34.63
2018-04-15T10:09:19.477Z,34.45
2018-04-15T10:11:46.319Z,35.72
2018-04-15T10:14:13.420Z,34.50
2018-04-15T10:16:40.248Z,35.10
2018-04-15T10:19:07.293Z,36.53
2018-04-15T10:21:34.138Z,36.45
2018-04-15T10:24:01.273Z,36.17
2018-04-15T10:26:28.041Z,37.80
2018-04-15T10:28:54.847Z,35.55
2018-04-15T10:31:21.939Z,36.00
2018-04-15T10:33:48.785Z,36.03
2018-04-15T10:36:15.597Z,36.67
2018-04-15T10:38:42.472Z,37.78
2018-04-15T10:41:09.517Z,38.03
2018-04-15T10:43:36.320Z,36.97
2018-04-15T10:46:03.151Z,38.42
2018-04-15T10:48:29.928Z,39.13
2018-04-15T10:50:57.101Z,38.92
2018-04-15T10:53:23.950Z,38.83
2018-04-15T10:55:50.796Z,42.00
2018-04-15T10:58:17.620Z,41.78
2018-04-15T11:00:44.404Z,41.08
2018-04-15T11:03:11.250Z,42.47
2018-04-15T11:05:38.371Z,41.67
2018-04-15T11:08:05.392Z,41.37
2018-04-15T11:10:32.455Z,38.78
2018-04-15T11:12:59.285Z,36.38
2018-04-15T11:15:26.125Z,38.40
2018-04-15T11:17:52.945Z,38.35
2018-04-15T11:20:19.785Z,40.05
2018-04-15T11:22:46.574Z,40.90
2018-04-15T11:25:13.357Z,40.90
2018-04-15T11:27:40.168Z,40.65
2018-04-15T11:30:07.204Z,40.70
2018-04-15T11:32:34.362Z,41.37
2018-04-15T11:35:01.148Z,40.92
2018-04-15T11:37:28.244Z,41.80
2018-04-15T11:39:55.105Z,40.50
2018-04-15T11:42:21.892Z,40.00
2018-04-15T11:44:48.741Z,39.80
2018-04-15T11:47:15.820Z,39.03
2018-04-15T11:49:42.651Z,39.25
2018-04-15T11:52:09.712Z,38.60
2018-04-15T11:54:36.553Z,39.05
2018-04-15T11:57:03.713Z,40.08
2018-04-15T11:59:30.528Z,39.25
2018-04-15T12:01:57.373Z,39.35
2018-04-15T12:04:24.446Z,38.50
2018-04-15T12:06:51.278Z,38.87
2018-04-15T12:09:18.066Z,39.50
2018-04-15T12:11:44.927Z,38.58
2018-04-15T12:14:11.901Z,37.75
2018-04-15T12:16:38.774Z,39.23
2018-04-15T12:19:05.587Z,39.30
2018-04-15T12:21:32.418Z,40.17
2018-04-15T12:23:59.496Z,39.47
2018-04-15T12:26:26.318Z,38.70
2018-04-15T12:28:53.141Z,37.95
2018-04-15T12:31:20.000Z,38.58
2018-04-15T12:33:47.080Z,39.65
2018-04-15T12:36:13.917Z,38.67
2018-04-15T12:38:40.769Z,39.13
2018-04-15T12:41:07.610Z,39.45
2018-04-15T12:43:34.429Z,38.58
2018-04-15T12:46:01.243Z,37.95
2018-04-15T12:48:28.068Z,37.53
2018-04-15T12:50:55.186Z,37.60
2018-04-15T12:53:22.001Z,37.17
2018-04-15T12:55:48.788Z,37.72
2018-04-15T12:58:16.138Z,37.50
2018-04-15T13:00:43.168Z,38.70
2018-04-15T13:03:09.985Z,35.75
2018-04-15T13:05:36.778Z,36.58
2018-04-15T13:08:03.613Z,36.70
2018-04-15T13:10:30.458Z,37.28
2018-04-15T13:12:57.361Z,37.10
2018-04-15T13:15:24.172Z,37.83
2018-04-15T13:17:51.257Z,37.75
2018-04-15T13:20:18.326Z,37.08
2018-04-15T13:22:45.128Z,34.65
2018-04-15T13:25:12.212Z,38.17
2018-04-15T13:27:39.070Z,38.37
2018-04-15T13:30:05.877Z,35.17
2018-04-15T13:32:32.700Z,38.67
2018-04-15T13:34:59.809Z,37.50
2018-04-15T13:37:26.593Z,38.63
2018-04-15T13:39:53.396Z,37.78
2018-04-15T13:42:20.200Z,37.58
2018-04-15T13:44:47.027Z,37.25
2018-04-15T13:47:13.845Z,36.80
2018-04-15T13:49:40.693Z,35.63
2018-04-15T13:52:07.519Z,38.03
2018-04-15T13:54:34.312Z,37.95
2018-04-15T13:57:01.145Z,37.42
2018-04-15T13:59:27.974Z,39.13
2018-04-15T14:01:55.073Z,37.13
2018-04-15T14:04:21.902Z,38.13
2018-04-15T14:06:48.741Z,38.50
2018-04-15T14:09:15.582Z,36.15
2018-04-15T14:11:42.393Z,35.28
2018-04-15T14:14:09.214Z,36.90
2018-04-15T14:16:36.009Z,36.50
2018-04-15T14:19:03.074Z,36.53
2018-04-15T14:21:29.880Z,36.20
2018-04-15T14:23:56.739Z,35.65
2018-04-15T14:26:23.809Z,35.05
2018-04-15T14:28:50.978Z,34.90
2018-04-15T14:31:17.809Z,35.40
2018-04-15T14:33:44.605Z,34.45
2018-04-15T14:36:11.421Z,33.53
2018-04-15T14:38:38.201Z,33.90
2018-04-15T14:41:05.388Z,33.55
2018-04-15T14:43:32.428Z,33.00
2018-04-15T14:45:59.472Z,33.28
2018-04-15T14:48:26.314Z,32.80
2018-04-15T14:50:53.478Z,32.00
2018-04-15T14:53:20.309Z,33.23
2018-04-15T14:55:47.128Z,33.30
2018-04-15T14:58:13.953Z,32.40
2018-04-15T15:00:41.770Z,32.90
2018-04-15T15:03:08.821Z,32.78
2018-04-15T15:05:35.628Z,31.95
2018-04-15T15:08:02.683Z,32.17
2018-04-15T15:10:29.525Z,32.08
2018-04-15T15:12:56.312Z,31.60
2018-04-15T15:15:23.158Z,31.92
2018-04-15T15:17:50.277Z,32.35
2018-04-15T15:20:17.288Z,31.45
2018-04-15T15:22:44.118Z,31.98
2018-04-15T15:25:10.930Z,33.13
2018-04-15T15:27:37.989Z,32.67
2018-04-15T15:30:04.810Z,33.42
2018-04-15T15:32:31.632Z,33.67
2018-04-15T15:34:58.454Z,32.92
2018-04-15T15:37:25.506Z,33.90
2018-04-15T15:39:52.645Z,32.97
2018-04-15T15:42:19.424Z,31.77
2018-04-15T15:44:46.269Z,32.70
2018-04-15T15:47:13.090Z,31.52
2018-04-15T15:49:40.120Z,32.63
2018-04-15T15:52:06.920Z,32.67
2018-04-15T15:54:33.948Z,32.95
2018-04-15T15:57:01.001Z,35.67
2018-04-15T15:59:28.117Z,34.67
2018-04-15T16:01:54.922Z,34.72
2018-04-15T16:04:21.744Z,35.40
2018-04-15T16:06:48.570Z,34.25
2018-04-15T16:09:15.401Z,37.15
2018-04-15T16:11:42.461Z,34.80
2018-04-15T16:14:09.490Z,35.42
2018-04-15T16:16:36.311Z,33.92
2018-04-15T16:19:03.412Z,32.23
2018-04-15T16:21:30.416Z,33.53
2018-04-15T16:23:57.240Z,35.00
2018-04-15T16:26:24.350Z,33.65
2018-04-15T16:28:51.154Z,32.42
2018-04-15T16:31:17.967Z,31.80
2018-04-15T16:33:44.790Z,31.10
2018-04-15T16:36:11.626Z,31.60
2018-04-15T16:38:38.635Z,32.05
2018-04-15T16:41:05.706Z,33.17
2018-04-15T16:43:32.950Z,32.78
2018-04-15T16:46:00.009Z,32.70
2018-04-15T16:48:26.813Z,31.62
2018-04-15T16:50:53.914Z,33.22
2018-04-15T16:53:20.794Z,33.22
2018-04-15T16:55:47.899Z,35.72
2018-04-15T16:58:14.750Z,35.10
2018-04-15T17:00:41.537Z,34.20
2018-04-15T17:03:08.381Z,34.42
2018-04-15T17:05:35.493Z,35.45
2018-04-15T17:08:02.313Z,35.55
2018-04-15T17:10:29.477Z,34.40
2018-04-15T17:12:56.312Z,34.00
2018-04-15T17:15:23.472Z,34.67
2018-04-15T17:17:50.409Z,34.90
2018-04-15T17:20:17.254Z,34.45
2018-04-15T17:22:44.296Z,34.08
2018-04-15T17:25:11.130Z,33.83
2018-04-15T17:27:38.188Z,35.83
2018-04-15T17:30:05.010Z,36.28
2018-04-15T17:32:32.080Z,36.53
2018-04-15T17:34:58.917Z,35.75
2018-04-15T17:37:25.700Z,37.13
2018-04-15T17:39:52.552Z,38.55
2018-04-15T17:42:19.381Z,37.95
2018-04-15T17:44:46.213Z,39.65
2018-04-15T17:47:13.037Z,38.17
2018-04-15T17:49:39.886Z,38.25
2018-04-15T17:52:06.946Z,37.30
2018-04-15T17:54:33.972Z,39.90
2018-04-15T17:57:01.134Z,39.30
2018-04-15T17:59:27.924Z,41.15
2018-04-15T18:01:54.729Z,39.40
2018-04-15T18:04:21.551Z,39.20
2018-04-15T18:06:48.371Z,39.37
2018-04-15T18:09:15.193Z,40.85
2018-04-15T18:11:41.961Z,40.80
2018-04-15T18:14:08.798Z,41.78
2018-04-15T18:16:35.645Z,41.37
2018-04-15T18:19:02.476Z,41.77
2018-04-15T18:21:29.296Z,41.97
2018-04-15T18:23:56.404Z,41.37
2018-04-15T18:26:23.253Z,41.33
2018-04-15T18:28:50.082Z,41.45
2018-04-15T18:31:17.143Z,41.55
2018-04-15T18:33:43.932Z,41.75
2018-04-15T18:36:10.781Z,41.58
2018-04-15T18:38:37.878Z,42.03
2018-04-15T18:41:04.665Z,41.97
2018-04-15T18:43:31.476Z,41.95
2018-04-15T18:45:58.293Z,42.15
2018-04-15T18:48:25.104Z,41.42
2018-04-15T18:50:51.896Z,39.88
2018-04-15T18:53:18.738Z,40.53
2018-04-15T18:55:45.533Z,38.53
2018-04-15T18:58:12.365Z,38.03
2018-04-15T19:00:39.462Z,40.65
2018-04-15T19:03:06.509Z,43.17
2018-04-15T19:05:33.362Z,38.28
2018-04-15T19:08:00.396Z,52.58
2018-04-15T19:10:27.250Z,48.78
2018-04-15T19:12:54.070Z,43.78
2018-04-15T19:15:20.908Z,42.43
2018-04-15T19:17:47.741Z,45.20
2018-04-15T19:20:14.828Z,44.70
2018-04-15T19:22:41.885Z,45.88
2018-04-15T19:25:08.710Z,43.80
2018-04-15T19:27:35.797Z,44.72
2018-04-15T19:30:02.592Z,43.75
2018-04-15T19:32:29.470Z,45.12
2018-04-15T19:34:56.545Z,44.42
2018-04-15T19:37:23.333Z,44.30
2018-04-15T19:39:50.169Z,44.58
2018-04-15T19:42:17.181Z,44.80
2018-04-15T19:44:44.222Z,43.30
2018-04-15T19:47:11.004Z,44.40
2018-04-15T19:49:37.830Z,42.70
2018-04-15T19:52:04.640Z,41.67
2018-04-15T19:54:31.478Z,46.75
2018-04-15T19:56:58.284Z,43.70
2018-04-15T19:59:25.098Z,42.63
2018-04-15T20:01:51.910Z,42.15
2018-04-15T20:04:19.026Z,40.72
2018-04-15T20:06:45.820Z,41.63
2018-04-15T20:09:12.669Z,41.28
2018-04-15T20:11:39.497Z,41.15
2018-04-15T20:14:06.350Z,40.78
2018-04-15T20:16:33.359Z,40.80
2018-04-15T20:19:00.173Z,41.97
2018-04-15T20:21:27.005Z,41.13
2018-04-15T20:23:53.826Z,41.88
2018-04-15T20:26:20.677Z,40.65
2018-04-15T20:28:47.768Z,40.00
2018-04-15T20:31:14.820Z,40.72
2018-04-15T20:33:41.613Z,38.92
2018-04-15T20:36:08.461Z,39.42
2018-04-15T20:38:35.547Z,41.30
2018-04-15T20:41:02.702Z,40.45
2018-04-15T20:43:29.857Z,40.88
2018-04-15T20:45:56.695Z,40.12
2018-04-15T20:48:23.740Z,39.53
2018-04-15T20:50:50.610Z,38.33
2018-04-15T20:53:17.412Z,36.53
2018-04-15T20:55:44.213Z,37.23
2018-04-15T20:58:11.030Z,38.20
2018-04-15T21:00:37.866Z,37.90
2018-04-15T21:03:04.693Z,36.90
2018-04-15T21:05:31.579Z,37.47
2018-04-15T21:07:58.360Z,36.42
2018-04-15T21:10:25.288Z,36.95
2018-04-15T21:12:52.116Z,35.30
2018-04-15T21:15:19.258Z,34.78
2018-04-15T21:17:46.080Z,34.10
2018-04-15T21:20:12.896Z,34.63
2018-04-15T21:22:39.692Z,34.45
2018-04-15T21:25:06.530Z,34.17
2018-04-15T21:27:33.344Z,34.85
2018-04-15T21:30:00.151Z,33.65
2018-04-15T21:32:26.932Z,32.83
2018-04-15T21:34:53.774Z,35.28
2018-04-15T21:37:21.021Z,34.30
2018-04-15T21:39:47.854Z,33.30
2018-04-15T21:42:14.649Z,33.58
2018-04-15T21:44:41.498Z,34.40
2018-04-15T21:47:08.284Z,33.75
2018-04-15T21:49:35.076Z,32.77
2018-04-15T21:52:01.885Z,32.95
2018-04-15T21:54:28.725Z,34.50
2018-04-15T21:56:55.548Z,33.00
2018-04-15T21:59:22.374Z,33.00
2018-04-15T22:01:49.444Z,33.30
2018-04-15T22:04:16.232Z,34.42
2018-04-15T22:06:43.057Z,34.23
2018-04-15T22:09:09.896Z,33.75
2018-04-15T22:11:42.702Z,34.35
2018-04-15T22:14:09.512Z,34.15
2018-04-15T22:16:36.309Z,34.63
2018-04-15T22:19:03.494Z,34.15
2018-04-15T22:21:30.641Z,34.20
2018-04-15T22:23:57.478Z,33.30
2018-04-15T22:26:24.638Z,33.95
2018-04-15T22:28:51.794Z,33.08
2018-04-15T22:31:18.609Z,32.72
2018-04-15T22:33:45.672Z,33.25
2018-04-15T22:36:12.501Z,31.77
2018-04-15T22:38:39.312Z,34.38
2018-04-15T22:41:06.143Z,32.83
2018-04-15T22:43:33.258Z,34.07
2018-04-15T22:46:00.300Z,33.08
2018-04-15T22:48:27.345Z,34.40
2018-04-15T22:50:54.156Z,32.03
2018-04-15T22:53:20.952Z,32.87
2018-04-15T22:55:47.793Z,32.20
2018-04-15T22:58:14.581Z,32.88
2018-04-15T23:00:41.418Z,32.85
2018-04-15T23:03:08.508Z,32.67
2018-04-15T23:05:35.350Z,32.72
2018-04-15T23:08:02.506Z,32.63
2018-04-15T23:10:29.329Z,32.70
2018-04-15T23:12:56.398Z,31.92
2018-04-15T23:15:23.237Z,33.67
2018-04-15T23:17:50.062Z,32.03
2018-04-15T23:20:16.907Z,30.20
2018-04-15T23:22:43.692Z,30.80
2018-04-15T23:25:10.817Z,33.20
2018-04-15T23:27:37.885Z,33.50
2018-04-15T23:30:04.710Z,33.75
2018-04-15T23:32:31.861Z,33.67
2018-04-15T23:34:58.904Z,32.15
2018-04-15T23:37:25.724Z,31.65
2018-04-15T23:39:52.550Z,29.90
2018-04-15T23:42:19.356Z,33.10
2018-04-15T23:44:46.180Z,35.85
2018-04-15T23:47:13.242Z,33.80
2018-04-15T23:49:40.030Z,32.28
2018-04-15T23:52:06.877Z,32.72
2018-04-15T23:54:33.961Z,33.72
2018-04-15T23:57:01.109Z,32.58
2018-04-15T23:59:28.151Z,34.65
